createdAt,value
2022-09-05T00:00:42.490Z,1.50
2022-09-05T00:04:05.015Z,1.40
2022-09-05T00:07:58.335Z,1.50
2022-09-05T00:11:18.047Z,1.50
2022-09-05T00:15:15.009Z,1.50
2022-09-05T00:20:34.827Z,1.40
2022-09-05T00:24:27.280Z,1.50
2022-09-05T00:25:30.173Z,1.60
2022-09-05T00:28:28.256Z,1.40
2022-09-05T00:31:54.401Z,1.40
2022-09-05T00:34:47.359Z,1.40
2022-09-05T00:37:42.813Z,1.50
2022-09-05T00:40:49.441Z,1.60
2022-09-05T00:43:44.946Z,1.60
2022-09-05T00:49:37.594Z,1.50
2022-09-05T00:53:04.991Z,1.50
2022-09-05T00:56:38.880Z,1.20
2022-09-05T00:59:24.770Z,1.50
2022-09-05T01:02:53.983Z,1.40
2022-09-05T01:06:11.838Z,1.40
2022-09-05T01:09:25.527Z,1.40
2022-09-05T01:12:33.019Z,1.40
2022-09-05T01:15:36.672Z,1.40
2022-09-05T01:18:55.924Z,1.40
2022-09-05T01:22:19.353Z,1.30
2022-09-05T01:25:40.468Z,1.40
2022-09-05T01:29:16.373Z,1.50
2022-09-05T01:32:57.336Z,1.50
2022-09-05T01:36:53.654Z,1.30
2022-09-05T01:43:31.191Z,1.50
2022-09-05T01:47:01.120Z,1.50
2022-09-05T01:50:01.549Z,1.50
2022-09-05T01:53:40.410Z,1.50
2022-09-05T01:56:54.801Z,1.30
2022-09-05T01:59:58.689Z,1.40
2022-09-05T02:03:32.160Z,1.40
2022-09-05T02:06:47.501Z,1.40
2022-09-05T02:09:55.540Z,1.40
2022-09-05T02:13:33.557Z,1.60
2022-09-05T02:16:46.006Z,1.30
2022-09-05T02:19:36.389Z,1.30
2022-09-05T02:22:46.675Z,1.30
2022-09-05T02:26:03.571Z,1.30
2022-09-05T02:29:29.605Z,1.30
2022-09-05T02:32:29.686Z,1.30
2022-09-05T02:35:29.076Z,1.50
2022-09-05T02:42:47.758Z,1.40
2022-09-05T02:45:12.048Z,1.30
2022-09-05T02:45:35.255Z,1.50
2022-09-05T02:49:07.796Z,1.50
2022-09-05T02:57:26.302Z,1.40
2022-09-05T02:57:40.241Z,1.50
2022-09-05T02:59:36.200Z,1.40
2022-09-05T03:02:58.728Z,1.40
2022-09-05T03:05:50.502Z,1.30
2022-09-05T03:09:16.629Z,1.30
2022-09-05T03:12:49.016Z,1.30
2022-09-05T03:16:04.693Z,1.40
2022-09-05T03:19:56.262Z,1.30
2022-09-05T03:22:59.940Z,1.30
2022-09-05T03:26:16.527Z,1.50
2022-09-05T03:29:36.260Z,1.20
2022-09-05T03:32:59.396Z,1.40
2022-09-05T03:36:23.073Z,1.40
2022-09-05T03:40:15.124Z,1.30
2022-09-05T03:43:53.860Z,1.30
2022-09-05T03:47:10.455Z,1.30
2022-09-05T03:53:09.216Z,1.30
2022-09-05T03:57:26.007Z,1.40
2022-09-05T03:57:42.377Z,1.10
2022-09-05T04:00:36.446Z,1.30
2022-09-05T04:08:09.354Z,1.40
2022-09-05T04:08:40.851Z,1.20
2022-09-05T04:11:03.981Z,1.40
2022-09-05T04:14:01.342Z,1.30
2022-09-05T04:16:53.202Z,1.20
2022-09-05T04:19:50.043Z,1.50
2022-09-05T04:23:12.953Z,1.20
2022-09-05T04:26:25.673Z,1.50
2022-09-05T04:30:11.509Z,1.10
2022-09-05T04:33:36.245Z,1.20
2022-09-05T04:36:36.610Z,1.40
2022-09-05T04:39:22.349Z,1.30
2022-09-05T04:42:26.676Z,2.50
2022-09-05T04:45:17.475Z,3.20
2022-09-05T04:48:21.422Z,3.70
2022-09-05T04:51:26.187Z,3.70
2022-09-05T04:54:18.188Z,4.10
2022-09-05T04:57:44.119Z,3.70
2022-09-05T05:06:03.066Z,3.70
2022-09-05T05:06:16.465Z,3.00
2022-09-05T05:07:23.956Z,3.20
2022-09-05T05:12:39.145Z,3.30
2022-09-05T05:18:06.720Z,3.20
2022-09-05T05:18:15.157Z,3.70
2022-09-05T05:20:42.969Z,3.40
2022-09-05T05:23:41.661Z,3.10
2022-09-05T05:27:03.177Z,3.00
2022-09-05T05:30:00.415Z,2.70
2022-09-05T05:32:52.639Z,3.40
2022-09-05T05:35:47.928Z,3.10
2022-09-05T05:39:04.881Z,3.10
2022-09-05T05:41:57.930Z,3.20
2022-09-05T05:44:57.009Z,2.90
2022-09-05T05:47:51.765Z,2.70
2022-09-05T05:51:19.577Z,2.80
2022-09-05T05:54:36.681Z,3.00
2022-09-05T05:57:55.494Z,2.90
2022-09-05T06:01:21.911Z,2.60
2022-09-05T06:05:07.624Z,2.80
2022-09-05T06:09:44.558Z,2.70
2022-09-05T06:14:53.052Z,2.40
2022-09-05T06:15:10.609Z,2.80
2022-09-05T06:18:32.330Z,2.40
2022-09-05T06:22:09.505Z,2.70
2022-09-05T06:25:43.138Z,2.30
2022-09-05T06:29:03.973Z,2.50
2022-09-05T06:32:33.032Z,2.20
2022-09-05T06:35:40.570Z,2.40
2022-09-05T06:38:56.699Z,2.30
2022-09-05T06:42:42.897Z,2.20
2022-09-05T06:46:48.444Z,2.20
2022-09-05T06:49:46.192Z,2.10
2022-09-05T06:53:35.028Z,2.20
2022-09-05T06:57:03.742Z,2.20
2022-09-05T07:00:23.337Z,2.10
2022-09-05T07:03:32.482Z,2.00
2022-09-05T07:07:01.495Z,2.20
2022-09-05T07:10:16.658Z,2.00
2022-09-05T07:13:29.192Z,2.10
2022-09-05T07:16:50.012Z,2.90
2022-09-05T07:19:39.858Z,2.20
2022-09-05T07:22:48.753Z,2.00
2022-09-05T07:25:37.384Z,2.40
2022-09-05T07:28:29.451Z,2.10
2022-09-05T07:31:33.640Z,2.10
2022-09-05T07:34:51.947Z,2.00
2022-09-05T07:37:42.567Z,1.90
2022-09-05T07:40:32.290Z,2.00
2022-09-05T07:43:59.114Z,2.00
2022-09-05T07:46:49.875Z,2.00
2022-09-05T07:49:45.572Z,1.90
2022-09-05T07:57:06.156Z,1.90
2022-09-05T07:57:08.982Z,1.90
2022-09-05T07:59:08.566Z,2.00
2022-09-05T08:01:55.742Z,1.90
2022-09-05T08:04:42.131Z,2.20
2022-09-05T08:07:49.220Z,2.00
2022-09-05T08:11:23.915Z,1.90
2022-09-05T08:14:46.396Z,2.00
2022-09-05T08:17:45.335Z,1.90
2022-09-05T08:20:57.412Z,2.00
2022-09-05T08:24:13.256Z,2.00
2022-09-05T08:27:17.043Z,2.00
2022-09-05T08:30:26.601Z,1.70
2022-09-05T08:33:26.125Z,1.80
2022-09-05T08:36:36.457Z,1.80
2022-09-05T08:39:29.647Z,1.70
2022-09-05T08:42:52.755Z,2.20
2022-09-05T08:46:43.695Z,1.90
2022-09-05T08:49:37.845Z,1.70
2022-09-05T08:52:26.262Z,1.90
2022-09-05T08:55:24.409Z,1.70
2022-09-05T08:58:41.524Z,1.70
2022-09-05T09:01:30.169Z,1.50
2022-09-05T09:05:01.351Z,1.80
2022-09-05T09:08:08.598Z,1.80
2022-09-05T09:11:13.426Z,1.60
2022-09-05T09:14:45.902Z,1.80
2022-09-05T09:17:43.222Z,1.80
2022-09-05T09:20:31.837Z,1.80
2022-09-05T09:24:11.980Z,1.70
2022-09-05T09:27:11.924Z,1.60
2022-09-05T09:30:06.524Z,1.90
2022-09-05T09:32:55.281Z,1.50
2022-09-05T09:35:59.568Z,1.60
2022-09-05T09:39:39.782Z,1.50
2022-09-05T09:42:35.258Z,1.70
2022-09-05T09:46:05.561Z,1.60
2022-09-05T09:49:22.684Z,1.60
2022-09-05T09:52:46.924Z,1.40
2022-09-05T09:55:54.861Z,1.40
2022-09-05T09:58:49.203Z,1.20
2022-09-05T10:01:54.508Z,1.40
2022-09-05T10:10:56.273Z,1.60
2022-09-05T10:10:57.331Z,1.50
2022-09-05T10:12:50.798Z,1.50
2022-09-05T10:16:07.564Z,1.40
2022-09-05T10:23:31.761Z,1.50
2022-09-05T10:27:08.221Z,1.40
2022-09-05T10:30:07.735Z,1.40
2022-09-05T10:35:08.291Z,1.40
2022-09-05T10:36:31.686Z,1.40
2022-09-05T10:39:35.807Z,1.60
2022-09-05T10:42:38.508Z,1.40
2022-09-05T10:45:56.381Z,1.50
2022-09-05T10:48:53.290Z,1.20
2022-09-05T10:51:39.453Z,1.70
2022-09-05T10:55:14.942Z,1.50
2022-09-05T10:58:25.236Z,1.80
2022-09-05T11:02:29.617Z,1.40
2022-09-05T11:05:19.514Z,1.40
2022-09-05T11:08:56.388Z,1.30
2022-09-05T11:11:50.368Z,1.40
2022-09-05T11:14:58.212Z,1.50
2022-09-05T11:18:24.036Z,1.40
2022-09-05T11:22:04.070Z,1.30
2022-09-05T11:25:05.365Z,1.30
2022-09-05T11:28:06.598Z,1.30
2022-09-05T11:30:57.570Z,1.40
2022-09-05T11:39:47.232Z,1.30
2022-09-05T11:40:09.702Z,1.40
2022-09-05T11:41:35.119Z,1.20
2022-09-05T11:44:41.590Z,1.50
2022-09-05T11:48:13.311Z,1.30
2022-09-05T11:51:33.359Z,1.30
2022-09-05T11:54:59.718Z,1.30
2022-09-05T11:58:44.758Z,1.50
2022-09-05T12:01:53.729Z,1.20
2022-09-05T12:05:47.751Z,1.30
2022-09-05T12:08:43.427Z,1.20
2022-09-05T12:12:19.365Z,1.30
2022-09-05T12:15:34.406Z,1.30
2022-09-05T12:18:35.337Z,1.20
2022-09-05T12:22:30.221Z,1.20
2022-09-05T12:27:39.352Z,1.20
2022-09-05T12:29:28.834Z,1.30
2022-09-05T12:33:58.194Z,1.20
2022-09-05T12:40:52.923Z,1.20
2022-09-05T12:41:33.998Z,1.30
2022-09-05T12:44:38.263Z,1.30
2022-09-05T12:46:52.018Z,1.50
2022-09-05T12:50:03.350Z,1.30
2022-09-05T12:53:16.100Z,1.30
2022-09-05T12:59:52.517Z,1.20
2022-09-05T13:02:58.282Z,1.30
2022-09-05T13:03:06.074Z,1.40
2022-09-05T13:05:59.272Z,1.10
2022-09-05T13:08:59.599Z,1.40
2022-09-05T13:14:50.168Z,1.40
2022-09-05T13:15:36.554Z,1.20
2022-09-05T13:18:30.911Z,1.20
2022-09-05T13:21:26.102Z,1.30
2022-09-05T13:27:24.284Z,1.20
2022-09-05T13:31:51.020Z,1.10
2022-09-05T13:38:01.344Z,1.20
2022-09-05T13:38:21.157Z,1.20
2022-09-05T13:40:48.251Z,1.20
2022-09-05T13:43:38.459Z,1.20
2022-09-05T13:46:42.067Z,1.20
2022-09-05T13:49:44.807Z,1.30
2022-09-05T13:52:42.622Z,1.10
2022-09-05T13:55:40.131Z,1.20
2022-09-05T13:58:43.198Z,1.40
2022-09-05T14:02:25.600Z,1.10
2022-09-05T14:05:32.634Z,1.00
2022-09-05T14:12:19.689Z,1.10
2022-09-05T14:15:26.229Z,0.90
2022-09-05T14:18:24.986Z,1.10
2022-09-05T14:21:17.397Z,1.20
2022-09-05T14:24:27.597Z,1.10
2022-09-05T14:27:32.160Z,0.90
2022-09-05T14:37:44.462Z,1.10
2022-09-05T14:37:44.746Z,1.30
2022-09-05T14:40:29.666Z,1.00
2022-09-05T14:43:33.925Z,1.00
2022-09-05T14:46:20.170Z,1.00
2022-09-05T14:49:23.022Z,1.20
2022-09-05T14:51:53.246Z,1.00
2022-09-05T15:02:38.309Z,1.20
2022-09-05T15:02:48.283Z,1.20
2022-09-05T15:03:14.093Z,1.20
2022-09-05T15:05:50.362Z,1.10
2022-09-05T15:10:16.285Z,1.00
2022-09-05T15:12:16.423Z,1.00
2022-09-05T15:14:13.138Z,1.00
2022-09-05T15:17:04.284Z,1.20
2022-09-05T15:20:06.249Z,1.20
2022-09-05T15:22:43.179Z,0.90
2022-09-05T15:25:22.780Z,1.00
2022-09-05T15:27:52.162Z,1.00
2022-09-05T15:30:36.498Z,1.30
2022-09-05T15:33:25.452Z,1.20
2022-09-05T15:35:56.564Z,1.00
2022-09-05T15:38:35.188Z,1.00
2022-09-05T15:41:30.477Z,1.10
2022-09-05T15:44:10.150Z,1.30
2022-09-05T15:46:41.432Z,1.10
2022-09-05T15:49:24.284Z,1.00
2022-09-05T15:52:14.269Z,0.90
2022-09-05T15:54:57.693Z,0.90
2022-09-05T15:57:35.778Z,1.10
2022-09-05T16:00:12.474Z,0.90
2022-09-05T16:02:47.260Z,0.90
2022-09-05T16:10:30.275Z,1.00
2022-09-05T16:10:57.611Z,1.00
2022-09-05T16:14:42.174Z,0.90
2022-09-05T16:23:16.961Z,1.00
2022-09-05T16:23:26.206Z,0.90
2022-09-05T16:23:45.089Z,1.00
2022-09-05T16:26:26.117Z,0.80
2022-09-05T16:29:26.154Z,0.90
2022-09-05T16:32:05.707Z,1.00
2022-09-05T16:34:55.222Z,0.90
2022-09-05T16:37:48.497Z,1.10
2022-09-05T16:40:34.965Z,0.90
2022-09-05T16:43:16.012Z,0.90
2022-09-05T16:46:15.426Z,1.00
2022-09-05T16:49:11.819Z,0.90
2022-09-05T16:51:45.530Z,1.20
2022-09-05T16:55:28.471Z,1.10
2022-09-05T16:58:21.926Z,1.20
2022-09-05T17:01:30.634Z,1.20
2022-09-05T17:04:24.950Z,1.30
2022-09-05T17:07:13.976Z,1.40
2022-09-05T17:09:45.625Z,1.30
2022-09-05T17:12:28.551Z,1.20
2022-09-05T17:15:10.579Z,1.20
2022-09-05T17:18:22.027Z,1.20
2022-09-05T17:20:37.071Z,1.20
2022-09-05T17:29:19.986Z,1.10
2022-09-05T17:29:33.769Z,1.30
2022-09-05T17:32:38.233Z,1.00
2022-09-05T17:35:24.723Z,1.30
2022-09-05T17:38:59.886Z,1.40
2022-09-05T17:42:04.546Z,1.20
2022-09-05T17:45:23.012Z,1.10
2022-09-05T17:47:58.007Z,1.20
2022-09-05T17:50:33.046Z,1.50
2022-09-05T17:53:24.968Z,1.10
2022-09-05T17:55:55.180Z,1.40
2022-09-05T17:58:49.234Z,1.50
2022-09-05T18:01:28.500Z,1.50
2022-09-05T18:04:16.762Z,1.30
2022-09-05T18:06:59.503Z,1.20
2022-09-05T18:09:37.706Z,1.50
2022-09-05T18:13:13.870Z,1.20
2022-09-05T18:15:28.479Z,1.30
2022-09-05T18:18:43.637Z,1.30
2022-09-05T18:21:21.494Z,1.20
2022-09-05T18:24:07.957Z,1.40
2022-09-05T18:26:46.581Z,1.30
2022-09-05T18:29:58.327Z,1.40
2022-09-05T18:33:54.555Z,1.40
2022-09-05T18:35:54.938Z,1.30
2022-09-05T18:38:50.802Z,1.50
2022-09-05T18:41:24.688Z,1.30
2022-09-05T18:44:13.348Z,1.30
2022-09-05T18:50:26.394Z,1.70
2022-09-05T18:52:45.951Z,1.70
2022-09-05T18:56:11.256Z,1.50
2022-09-05T18:58:25.778Z,1.40
2022-09-05T19:03:35.040Z,1.60
2022-09-05T19:06:36.200Z,1.50
2022-09-05T19:09:14.536Z,1.40
2022-09-05T19:12:21.008Z,1.40
2022-09-05T19:15:00.987Z,1.40
2022-09-05T19:17:47.157Z,1.50
2022-09-05T19:20:39.786Z,1.50
2022-09-05T19:23:13.797Z,1.30
2022-09-05T19:25:47.626Z,1.60
2022-09-05T19:36:54.775Z,1.60
2022-09-05T19:36:57.792Z,1.60
2022-09-05T19:37:10.673Z,1.70
2022-09-05T19:37:48.479Z,1.50
2022-09-05T19:45:09.970Z,1.50
2022-09-05T19:47:34.813Z,1.60
2022-09-05T19:47:56.385Z,1.20
2022-09-05T19:49:13.622Z,1.60
2022-09-05T19:51:42.725Z,1.40
2022-09-05T19:54:33.366Z,1.60
2022-09-05T19:57:05.882Z,1.50
2022-09-05T19:59:41.627Z,1.60
2022-09-05T20:02:31.409Z,1.30
2022-09-05T20:05:07.477Z,1.30
2022-09-05T20:07:49.784Z,1.60
2022-09-05T20:10:29.356Z,1.70
2022-09-05T20:12:59.204Z,1.60
2022-09-05T20:15:38.533Z,1.60
2022-09-05T20:18:36.308Z,1.60
2022-09-05T20:21:04.590Z,1.60
2022-09-05T20:23:33.736Z,1.40
2022-09-05T20:26:02.720Z,1.50
2022-09-05T20:28:35.979Z,1.40
2022-09-05T20:31:12.054Z,1.60
2022-09-05T20:33:54.615Z,1.50
2022-09-05T20:43:15.562Z,1.50
2022-09-05T20:43:27.110Z,1.40
2022-09-05T20:43:31.366Z,1.50
2022-09-05T20:47:17.376Z,1.50
2022-09-05T20:54:09.449Z,1.30
2022-09-05T20:54:16.968Z,1.30
2022-09-05T20:54:44.246Z,1.40
2022-09-05T20:57:20.213Z,1.60
2022-09-05T20:59:49.074Z,1.40
2022-09-05T21:02:23.358Z,1.40
2022-09-05T21:05:19.741Z,1.50
2022-09-05T21:08:07.692Z,1.50
2022-09-05T21:10:58.014Z,1.10
2022-09-05T21:13:32.042Z,1.50
2022-09-05T21:16:01.166Z,1.30
2022-09-05T21:18:34.257Z,1.60
2022-09-05T21:21:28.077Z,1.40
2022-09-05T21:24:17.550Z,1.40
2022-09-05T21:26:49.713Z,1.40
2022-09-05T21:29:32.439Z,1.20
2022-09-05T21:32:03.961Z,1.40
2022-09-05T21:34:48.539Z,1.40
2022-09-05T21:37:18.812Z,1.30
2022-09-05T21:39:59.991Z,1.40
2022-09-05T21:45:12.654Z,1.30
2022-09-05T21:47:48.686Z,1.30
2022-09-05T21:48:17.460Z,1.40
2022-09-05T21:50:50.358Z,1.40
2022-09-05T21:57:21.815Z,1.30
2022-09-05T21:59:28.595Z,1.30
2022-09-05T21:59:41.679Z,1.20
2022-09-05T22:02:16.730Z,1.40
2022-09-05T22:04:47.353Z,1.10
2022-09-05T22:07:26.383Z,1.50
2022-09-05T22:10:04.270Z,1.30
2022-09-05T22:12:36.228Z,1.30
2022-09-05T22:15:28.190Z,1.30
2022-09-05T22:18:16.648Z,1.30
2022-09-05T22:21:31.988Z,1.30
2022-09-05T22:23:45.999Z,1.50
2022-09-05T22:26:19.170Z,1.30
2022-09-05T22:28:50.068Z,1.30
2022-09-05T22:31:20.297Z,1.50
2022-09-05T22:33:51.220Z,1.40
2022-09-05T22:36:19.616Z,1.40
2022-09-05T22:38:48.076Z,1.50
2022-09-05T22:41:17.220Z,1.40
2022-09-05T22:43:46.491Z,1.40
2022-09-05T22:46:15.066Z,1.30
2022-09-05T22:48:43.516Z,1.40
2022-09-05T22:51:12.158Z,1.50
2022-09-05T22:53:40.267Z,1.30
2022-09-05T22:56:09.863Z,1.40
2022-09-05T22:58:44.794Z,1.40
2022-09-05T23:01:13.026Z,1.40
2022-09-05T23:03:41.097Z,1.50
2022-09-05T23:06:10.438Z,1.30
2022-09-05T23:08:38.717Z,1.20
2022-09-05T23:11:16.378Z,1.30
2022-09-05T23:13:44.972Z,1.50
2022-09-05T23:16:13.249Z,1.20
2022-09-05T23:18:41.880Z,1.40
2022-09-05T23:21:15.012Z,1.20
2022-09-05T23:23:43.321Z,1.20
2022-09-05T23:26:14.248Z,1.30
2022-09-05T23:28:44.087Z,1.40
2022-09-05T23:31:13.147Z,1.30
2022-09-05T23:33:42.795Z,1.30
2022-09-05T23:36:16.280Z,1.30
2022-09-05T23:38:44.773Z,1.20
2022-09-05T23:41:15.886Z,1.40
2022-09-05T23:43:43.822Z,1.30
2022-09-05T23:46:12.082Z,1.20
2022-09-05T23:48:40.090Z,1.40
2022-09-05T23:51:12.502Z,1.30
2022-09-05T23:53:41.382Z,1.50
2022-09-05T23:56:11.191Z,1.20
2022-09-05T23:58:40.015Z,1.30
